Time;durP1;ratioP1;P1;durP2;ratioP2;P2;SDS_P1;SDS_P2;PMS_P1;PMS_P2;Temp;Humidity;BMP_temperature;BMP_pressure;BME280_temperature;BME280_humidity;BME280_pressure;Samples;Min_cycle;Max_cycle;Signal;HPM_P1;HPM_P2
2023/07/30 00:01:11;;;;;;;4.72;2.90;;;19.30;99.90;;;;;;4997741;28;20038;-71
2023/07/30 00:03:37;;;;;;;5.22;3.15;;;19.30;99.90;;;;;;4998056;28;20030;-71
2023/07/30 00:06:02;;;;;;;3.45;2.60;;;19.40;99.90;;;;;;4997838;28;20034;-71
2023/07/30 00:08:28;;;;;;;10.05;2.80;;;19.40;99.90;;;;;;4998012;28;20026;-71
2023/07/30 00:10:56;;;;;;;6.43;3.17;;;19.40;99.90;;;;;;4997539;28;20018;-71
2023/07/30 00:13:22;;;;;;;4.00;2.40;;;19.40;99.90;;;;;;4997801;28;20022;-71
2023/07/30 00:15:48;;;;;;;7.22;2.70;;;19.50;99.90;;;;;;4997619;28;20090;-71
2023/07/30 00:18:14;;;;;;;5.70;3.22;;;19.50;99.90;;;;;;4997830;28;20026;-71
2023/07/30 00:20:39;;;;;;;5.07;3.25;;;19.60;99.90;;;;;;4997286;28;20113;-71
2023/07/30 00:23:05;;;;;;;5.70;2.67;;;19.60;99.90;;;;;;4997690;28;20050;-71
2023/07/30 00:25:30;;;;;;;8.48;3.35;;;19.70;99.90;;;;;;4997629;28;20054;-71
2023/07/30 00:27:56;;;;;;;5.32;2.55;;;19.70;99.90;;;;;;4997553;28;20034;-71
2023/07/30 00:30:21;;;;;;;9.32;2.72;;;19.70;99.90;;;;;;4998241;28;20026;-71
2023/07/30 00:32:47;;;;;;;12.63;2.90;;;19.80;99.90;;;;;;4997804;28;20068;-71
2023/07/30 00:35:13;;;;;;;3.42;2.65;;;19.90;99.90;;;;;;4997026;28;20045;-71
2023/07/30 00:37:38;;;;;;;4.50;2.15;;;19.90;99.90;;;;;;4997536;28;20022;-71
2023/07/30 00:40:04;;;;;;;3.50;2.65;;;19.90;99.90;;;;;;4997405;28;20142;-71
2023/07/30 00:42:30;;;;;;;5.78;2.40;;;19.80;99.90;;;;;;4997188;28;20125;-71
2023/07/30 00:44:55;;;;;;;7.07;3.10;;;19.80;99.90;;;;;;4997312;28;20109;-71
2023/07/30 00:47:22;;;;;;;6.78;2.85;;;19.80;99.90;;;;;;4997711;28;20027;-71
2023/07/30 00:49:48;;;;;;;5.53;2.83;;;19.70;99.90;;;;;;4997183;28;20026;-71
2023/07/30 00:52:17;;;;;;;4.32;2.53;;;19.70;99.90;;;;;;4997199;28;20018;-71
2023/07/30 00:54:42;;;;;;;4.47;2.63;;;19.70;99.90;;;;;;4997088;28;20018;-71
2023/07/30 00:57:09;;;;;;;8.77;3.85;;;19.60;99.90;;;;;;4997167;28;20023;-71
2023/07/30 00:59:35;;;;;;;3.25;2.40;;;19.50;99.90;;;;;;4997612;28;20034;-71
2023/07/30 01:02:02;;;;;;;8.90;2.85;;;19.50;99.90;;;;;;4997059;28;20026;-71
2023/07/30 01:04:28;;;;;;;3.40;2.33;;;19.30;99.90;;;;;;4996891;28;20026;-71
2023/07/30 01:06:54;;;;;;;6.55;3.15;;;19.20;99.90;;;;;;4997905;28;20069;-71
2023/07/30 01:09:19;;;;;;;5.40;2.78;;;18.90;99.90;;;;;;4996998;28;20031;-71
2023/07/30 01:11:46;;;;;;;4.85;2.92;;;18.80;99.90;;;;;;4996708;28;20030;-71
2023/07/30 01:14:14;;;;;;;8.43;2.70;;;18.70;99.90;;;;;;4997256;28;20030;-71
2023/07/30 01:16:39;;;;;;;5.30;2.45;;;18.70;99.90;;;;;;4997425;28;20027;-71
2023/07/30 01:19:06;;;;;;;3.15;2.47;;;18.70;99.90;;;;;;4996626;28;20022;-71
2023/07/30 01:21:36;;;;;;;4.13;2.15;;;18.70;99.90;;;;;;4996532;28;20050;-71
2023/07/30 01:24:01;;;;;;;4.75;2.80;;;18.70;99.90;;;;;;4996729;28;20027;-71
2023/07/30 01:26:55;;;;;;;3.63;2.60;;;18.70;99.90;;;;;;4997198;28;20022;-71
2023/07/30 01:29:38;;;;;;;5.32;2.50;;;18.60;99.90;;;;;;4997209;28;20053;-71
2023/07/30 01:32:07;;;;;;;4.07;2.63;;;18.60;99.90;;;;;;4998270;28;20076;-71
2023/07/30 01:34:35;;;;;;;3.25;2.20;;;18.60;99.90;;;;;;5001230;28;20109;-71
2023/07/30 01:37:02;;;;;;;7.28;2.60;;;18.60;99.90;;;;;;5000749;28;20026;-71
2023/07/30 01:39:28;;;;;;;3.33;1.92;;;18.60;99.90;;;;;;5000854;28;20026;-71
2023/07/30 01:41:54;;;;;;;2.85;2.10;;;18.60;99.90;;;;;;5000842;28;20093;-71
2023/07/30 01:44:20;;;;;;;4.75;2.10;;;18.60;99.90;;;;;;5000827;28;20114;-71
2023/07/30 01:46:45;;;;;;;3.72;2.25;;;18.50;99.90;;;;;;5000495;28;20117;-71
2023/07/30 01:49:11;;;;;;;2.13;1.80;;;18.50;99.90;;;;;;5000726;28;20026;-71
2023/07/30 01:51:36;;;;;;;3.67;2.15;;;18.50;99.90;;;;;;5000374;28;20026;-71
2023/07/30 01:54:02;;;;;;;4.00;2.20;;;18.40;99.90;;;;;;5000548;28;20018;-81
2023/07/30 01:56:28;;;;;;;2.80;1.75;;;18.40;99.90;;;;;;5002598;28;20026;-81
2023/07/30 01:58:54;;;;;;;5.35;2.45;;;18.40;99.90;;;;;;5001683;28;20022;-81
2023/07/30 02:01:20;;;;;;;7.00;2.35;;;18.40;99.90;;;;;;5002806;28;20049;-81
2023/07/30 02:03:45;;;;;;;9.43;2.03;;;18.50;99.90;;;;;;5002624;28;20030;-81
2023/07/30 02:06:11;;;;;;;2.92;1.90;;;18.70;99.90;;;;;;5001885;28;20029;-81
2023/07/30 02:08:37;;;;;;;3.95;1.90;;;18.80;99.90;;;;;;5002359;28;20117;-81
2023/07/30 02:11:03;;;;;;;2.75;2.05;;;18.70;99.90;;;;;;5001963;28;20054;-81
2023/07/30 02:13:28;;;;;;;4.25;1.70;;;18.70;99.90;;;;;;5001577;28;20109;-81
2023/07/30 02:15:54;;;;;;;5.60;2.03;;;18.70;99.90;;;;;;5001544;28;20124;-81
2023/07/30 02:18:19;;;;;;;5.03;2.40;;;18.60;99.90;;;;;;5001635;28;20026;-81
2023/07/30 02:20:45;;;;;;;4.45;2.22;;;18.50;99.90;;;;;;5002307;28;20026;-81
2023/07/30 02:23:11;;;;;;;5.85;1.98;;;18.40;99.90;;;;;;5001572;28;20026;-81
2023/07/30 02:25:37;;;;;;;6.55;2.30;;;18.30;99.90;;;;;;5001556;28;20054;-81
2023/07/30 02:28:03;;;;;;;2.17;1.85;;;18.20;99.90;;;;;;5001593;28;20133;-81
2023/07/30 02:30:30;;;;;;;7.65;2.58;;;18.20;99.90;;;;;;5001407;28;20094;-81
2023/07/30 02:32:55;;;;;;;5.07;2.13;;;18.20;99.90;;;;;;5001923;28;20061;-81
2023/07/30 02:35:21;;;;;;;5.30;2.53;;;18.10;99.90;;;;;;5001108;28;20027;-67
2023/07/30 02:37:46;;;;;;;3.22;2.53;;;18.10;99.90;;;;;;5000493;28;20028;-67
2023/07/30 02:40:12;;;;;;;5.97;2.30;;;18.10;99.90;;;;;;4999880;28;20048;-66
2023/07/30 02:42:37;;;;;;;5.55;2.42;;;18.10;99.90;;;;;;4998538;28;20073;-67
2023/07/30 02:45:05;;;;;;;7.40;2.60;;;18.10;99.90;;;;;;4999016;28;20026;-67
2023/07/30 02:47:30;;;;;;;3.97;2.03;;;18.10;99.90;;;;;;4999140;28;20026;-67
2023/07/30 02:49:56;;;;;;;4.38;2.22;;;18.10;99.90;;;;;;4999060;28;20033;-67
2023/07/30 02:52:21;;;;;;;3.15;2.05;;;18.10;99.90;;;;;;4999406;28;20029;-67
2023/07/30 02:54:47;;;;;;;6.05;2.92;;;18.10;99.90;;;;;;4999611;28;20030;-67
2023/07/30 02:57:12;;;;;;;3.75;2.67;;;18.10;99.90;;;;;;4999369;28;20018;-67
2023/07/30 02:59:38;;;;;;;8.05;2.15;;;18.10;99.90;;;;;;4999219;28;20052;-67
2023/07/30 03:02:07;;;;;;;3.92;2.03;;;18.10;99.90;;;;;;5000034;28;20030;-67
2023/07/30 03:04:33;;;;;;;4.55;2.05;;;18.10;99.90;;;;;;4999082;28;20030;-67
2023/07/30 03:06:59;;;;;;;4.30;2.20;;;18.10;99.90;;;;;;4999198;28;20033;-67
2023/07/30 03:09:24;;;;;;;3.17;1.90;;;18.10;99.90;;;;;;4998744;28;20030;-66
2023/07/30 03:11:50;;;;;;;2.90;1.90;;;18.10;99.90;;;;;;4999443;28;20069;-66
2023/07/30 03:14:15;;;;;;;3.03;1.98;;;18.10;99.90;;;;;;4998885;28;20033;-66
2023/07/30 03:16:41;;;;;;;7.53;2.20;;;18.00;99.90;;;;;;4998796;28;20097;-67
2023/07/30 03:19:07;;;;;;;3.05;1.77;;;18.00;99.90;;;;;;4998571;28;20058;-67
2023/07/30 03:21:32;;;;;;;2.75;1.77;;;18.00;99.90;;;;;;4998734;28;20018;-67
2023/07/30 03:23:58;;;;;;;2.28;1.80;;;18.00;99.90;;;;;;4998885;28;20033;-67
2023/07/30 03:26:23;;;;;;;4.63;1.88;;;18.00;99.90;;;;;;4998880;28;20109;-66
2023/07/30 03:28:49;;;;;;;5.88;2.08;;;18.00;99.90;;;;;;4998718;28;20095;-67
2023/07/30 03:31:18;;;;;;;6.35;2.05;;;17.80;99.90;;;;;;4998796;28;20023;-67
2023/07/30 03:33:44;;;;;;;4.25;2.47;;;17.70;99.90;;;;;;4998718;28;20172;-66
2023/07/30 03:36:11;;;;;;;11.85;2.67;;;17.80;99.90;;;;;;4999236;28;20038;-67
2023/07/30 03:38:36;;;;;;;5.68;2.30;;;17.80;99.90;;;;;;4998624;28;20034;-67
2023/07/30 03:41:04;;;;;;;2.90;1.65;;;17.80;99.90;;;;;;4998193;28;20030;-67
2023/07/30 03:43:29;;;;;;;1.70;1.60;;;17.80;99.90;;;;;;4998918;28;20031;-67
2023/07/30 03:45:55;;;;;;;6.05;2.20;;;17.80;99.90;;;;;;4998012;28;20033;-66
2023/07/30 03:48:20;;;;;;;2.53;1.83;;;17.80;99.90;;;;;;4998072;28;20069;-66
2023/07/30 03:50:46;;;;;;;2.80;1.90;;;17.70;99.90;;;;;;4998990;28;20029;-67
2023/07/30 03:53:11;;;;;;;2.13;1.90;;;17.80;99.90;;;;;;4998868;28;20073;-67
2023/07/30 03:55:37;;;;;;;9.68;2.28;;;17.70;99.90;;;;;;4997754;28;20037;-67
2023/07/30 03:58:02;;;;;;;2.28;1.90;;;17.70;99.90;;;;;;4998438;28;20049;-66
2023/07/30 04:00:29;;;;;;;4.75;2.30;;;17.70;99.90;;;;;;4998118;28;20026;-67
2023/07/30 04:02:54;;;;;;;2.78;1.92;;;17.60;99.90;;;;;;4998604;28;20092;-67
2023/07/30 04:05:20;;;;;;;8.13;2.10;;;17.60;99.90;;;;;;4997732;28;20026;-67
2023/07/30 04:07:45;;;;;;;5.78;1.90;;;17.60;99.90;;;;;;4997691;28;20037;-67
2023/07/30 04:10:11;;;;;;;8.55;2.10;;;17.50;99.90;;;;;;4997839;28;20030;-67
2023/07/30 04:12:37;;;;;;;5.28;2.08;;;17.40;99.90;;;;;;4997798;28;20026;-67
2023/07/30 04:15:03;;;;;;;5.40;2.20;;;17.50;99.90;;;;;;4997286;28;20038;-67
2023/07/30 04:17:28;;;;;;;4.57;1.92;;;17.60;99.90;;;;;;4997819;28;20018;-67
2023/07/30 04:19:54;;;;;;;3.63;1.98;;;17.50;99.90;;;;;;4997762;28;20030;-67
2023/07/30 04:22:19;;;;;;;7.15;2.15;;;17.50;99.90;;;;;;4998134;28;20033;-67
2023/07/30 04:24:45;;;;;;;5.82;2.13;;;17.50;99.90;;;;;;4997327;28;20076;-67
2023/07/30 04:27:10;;;;;;;2.22;1.63;;;17.50;99.90;;;;;;4997407;28;20049;-67
2023/07/30 04:29:36;;;;;;;2.88;1.73;;;17.50;99.90;;;;;;4997655;28;20029;-66
2023/07/30 04:32:01;;;;;;;5.60;2.38;;;17.50;99.90;;;;;;4997218;28;20029;-66
2023/07/30 04:34:27;;;;;;;3.25;1.58;;;17.60;99.90;;;;;;4997159;28;20026;-67
2023/07/30 04:36:52;;;;;;;4.53;2.10;;;17.60;99.90;;;;;;4997913;28;20023;-67
2023/07/30 04:39:18;;;;;;;2.85;2.00;;;17.70;99.90;;;;;;4997051;28;20034;-67
2023/07/30 04:41:43;;;;;;;5.95;2.15;;;17.70;99.90;;;;;;4997541;28;20037;-67
2023/07/30 04:44:09;;;;;;;2.10;1.73;;;17.60;99.90;;;;;;4998103;28;20022;-67
2023/07/30 04:46:34;;;;;;;2.17;1.98;;;17.50;99.90;;;;;;4997029;28;20034;-67
2023/07/30 04:49:03;;;;;;;3.00;1.92;;;17.60;99.90;;;;;;4996858;28;20037;-67
2023/07/30 04:51:28;;;;;;;3.83;1.73;;;17.50;99.90;;;;;;4997221;28;20030;-67
2023/07/30 04:53:54;;;;;;;3.83;2.05;;;17.50;99.90;;;;;;4996941;28;20069;-66
2023/07/30 04:56:19;;;;;;;4.82;2.00;;;17.50;99.90;;;;;;4996924;28;20077;-66
2023/07/30 04:58:45;;;;;;;5.38;1.90;;;17.50;99.90;;;;;;4996887;28;20026;-67
2023/07/30 05:01:10;;;;;;;4.68;1.50;;;17.40;99.90;;;;;;4997518;28;20023;-66
2023/07/30 05:03:36;;;;;;;3.22;1.58;;;17.40;99.90;;;;;;4997039;28;20026;-68
2023/07/30 05:06:01;;;;;;;1.80;1.40;;;17.40;99.90;;;;;;4996363;28;20031;-67
2023/07/30 05:08:28;;;;;;;5.25;1.92;;;17.50;99.90;;;;;;4997202;28;20062;-66
2023/07/30 05:10:53;;;;;;;5.50;2.10;;;17.50;99.90;;;;;;4996683;28;20039;-67
2023/07/30 05:13:19;;;;;;;6.00;1.90;;;17.60;99.90;;;;;;4996840;28;20022;-67
2023/07/30 05:15:44;;;;;;;5.25;2.45;;;17.70;99.90;;;;;;5020571;23;20042;-68
2023/07/30 05:18:10;;;;;;;3.83;1.90;;;17.70;99.90;;;;;;4997541;28;20026;-68
2023/07/30 05:20:35;;;;;;;3.55;1.90;;;17.90;99.90;;;;;;4996847;28;20112;-68
2023/07/30 05:23:02;;;;;;;1.83;1.63;;;18.00;99.90;;;;;;4997538;28;20026;-68
2023/07/30 05:25:28;;;;;;;2.38;1.52;;;18.10;99.90;;;;;;4996516;28;20038;-68
2023/07/30 05:27:53;;;;;;;3.88;1.60;;;18.20;99.90;;;;;;4996944;28;20038;-68
2023/07/30 05:30:19;;;;;;;3.08;1.80;;;18.50;99.90;;;;;;4997674;28;20033;-68
2023/07/30 05:32:44;;;;;;;6.50;1.83;;;18.60;99.90;;;;;;4996884;28;20014;-71
2023/07/30 05:35:10;;;;;;;4.15;1.90;;;18.70;99.90;;;;;;4996574;28;20030;-71
2023/07/30 05:37:35;;;;;;;2.38;1.40;;;18.70;99.90;;;;;;4996496;28;20018;-72
2023/07/30 05:40:01;;;;;;;2.00;1.58;;;18.80;99.90;;;;;;4997014;28;20076;-72
2023/07/30 05:42:26;;;;;;;3.63;1.50;;;18.80;99.90;;;;;;4996858;28;20085;-72
2023/07/30 05:44:52;;;;;;;2.58;1.60;;;18.90;99.90;;;;;;4996572;28;20072;-72
2023/07/30 05:47:17;;;;;;;3.28;1.65;;;18.80;99.90;;;;;;4996443;28;20030;-72
2023/07/30 05:49:43;;;;;;;2.33;1.45;;;18.90;99.90;;;;;;4996198;28;20026;-72
2023/07/30 05:52:09;;;;;;;5.65;1.83;;;19.00;99.90;;;;;;4997393;28;20018;-72
2023/07/30 05:54:34;;;;;;;2.03;1.30;;;19.00;99.90;;;;;;4997152;28;20023;-72
2023/07/30 05:56:59;;;;;;;3.75;1.33;;;19.00;99.90;;;;;;4996997;28;20022;-71
2023/07/30 05:59:25;;;;;;;1.48;1.38;;;19.00;99.90;;;;;;4996212;28;20037;-72
2023/07/30 06:01:51;;;;;;;2.63;1.42;;;19.10;99.90;;;;;;4996273;28;20026;-72
2023/07/30 06:04:16;;;;;;;2.00;1.38;;;19.00;99.90;;;;;;4996396;28;20068;-72
2023/07/30 06:06:42;;;;;;;4.07;1.60;;;19.20;99.90;;;;;;4996224;28;20109;-71
2023/07/30 06:09:07;;;;;;;7.45;1.50;;;19.30;99.90;;;;;;4996104;28;20030;-71
2023/07/30 06:11:33;;;;;;;7.20;1.63;;;19.30;99.90;;;;;;4996241;28;20132;-71
2023/07/30 06:13:59;;;;;;;3.63;1.60;;;19.40;99.90;;;;;;4996189;28;20030;-72
2023/07/30 06:16:24;;;;;;;1.40;1.08;;;19.40;99.90;;;;;;4996020;28;20030;-72
2023/07/30 06:18:50;;;;;;;1.30;1.20;;;19.50;99.90;;;;;;4999128;28;20022;-72
2023/07/30 06:21:15;;;;;;;5.50;1.55;;;19.50;99.90;;;;;;4999787;28;20022;-71
2023/07/30 06:23:41;;;;;;;2.42;1.30;;;19.50;99.90;;;;;;4999724;28;20045;-71
2023/07/30 06:26:06;;;;;;;2.92;1.42;;;19.50;99.90;;;;;;5000618;28;20030;-72
2023/07/30 06:28:32;;;;;;;1.50;1.33;;;19.60;99.90;;;;;;4999919;28;20030;-72
2023/07/30 06:31:02;;;;;;;2.00;1.33;;;19.60;99.90;;;;;;4999918;28;20034;-72
2023/07/30 06:33:28;;;;;;;2.22;1.08;;;19.60;99.90;;;;;;5000718;28;20015;-71
2023/07/30 06:35:53;;;;;;;2.13;1.40;;;19.60;99.90;;;;;;4999338;28;20030;-70
2023/07/30 06:38:19;;;;;;;2.47;1.35;;;19.60;99.90;;;;;;4999510;28;20113;-70
2023/07/30 06:40:44;;;;;;;3.83;1.23;;;19.70;99.90;;;;;;4999755;28;20057;-70
2023/07/30 06:43:10;;;;;;;4.78;1.17;;;19.70;99.90;;;;;;5000464;28;20057;-70
2023/07/30 06:45:35;;;;;;;3.60;1.17;;;19.70;99.90;;;;;;4999238;28;20076;-70
2023/07/30 06:48:01;;;;;;;2.28;1.25;;;19.80;99.90;;;;;;4999313;28;20030;-70
2023/07/30 06:50:26;;;;;;;1.25;1.10;;;19.90;99.90;;;;;;4999683;28;20022;-70
2023/07/30 06:52:52;;;;;;;2.95;1.15;;;20.10;99.90;;;;;;4999751;28;20034;-70
2023/07/30 06:55:18;;;;;;;2.80;1.48;;;20.10;99.90;;;;;;4999102;28;20073;-70
2023/07/30 06:57:43;;;;;;;8.88;1.45;;;20.30;99.90;;;;;;4999409;28;20026;-70
2023/07/30 07:00:09;;;;;;;4.03;1.33;;;20.30;99.90;;;;;;4998982;28;20030;-70
2023/07/30 07:02:35;;;;;;;2.40;1.20;;;20.20;99.90;;;;;;4999081;28;20034;-70
2023/07/30 07:05:00;;;;;;;5.47;1.30;;;20.30;99.90;;;;;;4999164;28;20026;-70
2023/07/30 07:07:26;;;;;;;3.42;1.38;;;20.30;99.90;;;;;;4999053;28;20049;-70
2023/07/30 07:09:51;;;;;;;3.20;1.25;;;20.20;99.90;;;;;;4999971;28;20046;-70
2023/07/30 07:12:17;;;;;;;2.90;1.27;;;20.30;99.90;;;;;;4999183;28;20031;-70
2023/07/30 07:14:43;;;;;;;4.00;1.35;;;20.20;99.90;;;;;;4999932;28;20034;-70
2023/07/30 07:17:08;;;;;;;2.83;1.50;;;20.10;99.90;;;;;;5000076;28;20030;-70
2023/07/30 07:19:36;;;;;;;2.15;1.17;;;20.10;99.90;;;;;;4998768;28;20077;-70
2023/07/30 07:22:05;;;;;;;2.83;1.38;;;20.10;99.90;;;;;;4999545;28;20026;-70
2023/07/30 07:24:31;;;;;;;5.30;1.48;;;20.10;99.90;;;;;;4999827;28;20027;-71
2023/07/30 07:26:57;;;;;;;5.47;1.23;;;20.10;99.90;;;;;;4998785;28;20027;-70
2023/07/30 07:29:22;;;;;;;6.05;1.50;;;20.20;99.90;;;;;;4998715;28;20038;-71
2023/07/30 07:31:48;;;;;;;3.38;1.38;;;20.30;99.90;;;;;;4998449;28;20026;-70
2023/07/30 07:34:13;;;;;;;2.00;1.50;;;20.30;99.90;;;;;;4998424;28;20109;-70
2023/07/30 07:36:39;;;;;;;5.22;1.25;;;20.30;99.90;;;;;;4998383;28;20018;-70
2023/07/30 07:39:06;;;;;;;6.50;1.80;;;20.30;99.90;;;;;;4999408;28;20054;-70
2023/07/30 07:41:31;;;;;;;3.85;1.80;;;20.30;99.90;;;;;;4999034;28;20022;-70
2023/07/30 07:43:57;;;;;;;2.47;1.50;;;20.40;99.90;;;;;;4999063;28;20037;-70
2023/07/30 07:46:23;;;;;;;2.53;1.55;;;20.40;99.90;;;;;;4998704;28;20050;-70
2023/07/30 07:48:48;;;;;;;4.72;1.65;;;20.40;99.90;;;;;;4998912;28;20034;-70
2023/07/30 07:51:14;;;;;;;4.07;1.48;;;20.50;99.90;;;;;;4998027;28;20026;-70
2023/07/30 07:53:40;;;;;;;4.32;1.25;;;20.50;99.90;;;;;;4998874;28;20027;-70
2023/07/30 07:56:05;;;;;;;5.30;1.58;;;20.50;99.90;;;;;;4998316;28;20093;-70
2023/07/30 07:58:31;;;;;;;2.42;1.33;;;20.60;99.90;;;;;;4998309;28;20018;-71
2023/07/30 08:00:57;;;;;;;4.35;1.75;;;20.50;99.90;;;;;;4998747;28;20022;-69
2023/07/30 08:03:23;;;;;;;3.45;1.50;;;20.50;99.90;;;;;;4998773;28;20027;-69
2023/07/30 08:05:49;;;;;;;6.75;1.40;;;20.50;99.90;;;;;;4997609;28;20023;-70
2023/07/30 08:08:15;;;;;;;4.03;1.50;;;20.50;99.90;;;;;;4998153;28;20022;-70
2023/07/30 08:10:46;;;;;;;3.88;1.30;;;20.50;99.90;;;;;;4997701;28;20041;-71
2023/07/30 08:13:11;;;;;;;2.83;1.33;;;20.50;99.90;;;;;;4997746;28;20018;-71
2023/07/30 08:15:37;;;;;;;4.55;1.30;;;20.50;99.90;;;;;;4997895;28;20092;-71
2023/07/30 08:18:03;;;;;;;4.93;1.20;;;20.50;99.90;;;;;;4997905;28;20025;-71
2023/07/30 08:20:28;;;;;;;2.50;1.33;;;20.50;99.90;;;;;;4997597;28;20088;-71
2023/07/30 08:22:54;;;;;;;1.35;1.25;;;20.50;99.90;;;;;;4998484;28;20034;-71
2023/07/30 08:25:19;;;;;;;6.03;1.20;;;20.50;99.90;;;;;;4997446;28;20030;-71
2023/07/30 08:27:45;;;;;;;4.45;1.20;;;20.50;99.90;;;;;;4997719;28;20034;-71
2023/07/30 08:30:11;;;;;;;3.65;1.10;;;20.50;99.90;;;;;;4997581;28;20023;-72
2023/07/30 08:32:37;;;;;;;1.60;1.05;;;20.50;99.90;;;;;;4997438;28;20053;-71
2023/07/30 08:35:03;;;;;;;4.88;1.40;;;20.50;99.90;;;;;;4997161;28;20025;-72
2023/07/30 08:37:29;;;;;;;4.03;1.50;;;20.50;99.90;;;;;;4998104;28;20029;-72
2023/07/30 08:39:54;;;;;;;3.33;1.35;;;20.50;99.90;;;;;;4997093;28;20022;-72
2023/07/30 08:42:20;;;;;;;2.90;1.10;;;20.50;99.90;;;;;;4997993;28;20034;-71
2023/07/30 08:44:45;;;;;;;2.55;1.10;;;20.40;99.90;;;;;;4996959;28;20030;-72
2023/07/30 08:47:11;;;;;;;2.88;1.58;;;20.30;99.90;;;;;;4997917;28;20033;-70
2023/07/30 08:49:37;;;;;;;2.42;1.25;;;20.20;99.90;;;;;;4997112;28;20028;-70
2023/07/30 08:52:03;;;;;;;2.75;1.48;;;20.00;99.90;;;;;;4997064;28;20029;-70
2023/07/30 08:54:31;;;;;;;4.75;1.92;;;20.00;99.90;;;;;;4996912;28;20045;-70
2023/07/30 08:56:58;;;;;;;2.60;1.95;;;20.10;99.90;;;;;;4996902;28;20042;-70
2023/07/30 08:59:27;;;;;;;4.18;2.10;;;20.10;99.90;;;;;;4996915;28;20041;-70
2023/07/30 09:01:53;;;;;;;3.67;1.52;;;20.10;99.90;;;;;;4997203;28;20166;-70
2023/07/30 09:04:20;;;;;;;5.18;1.92;;;20.10;99.90;;;;;;4996761;28;20026;-70
2023/07/30 09:06:50;;;;;;;1.60;1.50;;;20.10;99.90;;;;;;4997561;28;20033;-70
2023/07/30 09:09:16;;;;;;;1.98;1.60;;;20.20;99.90;;;;;;4997756;28;20022;-70
2023/07/30 09:11:41;;;;;;;2.70;1.80;;;20.30;99.90;;;;;;4997635;28;20027;-70
2023/07/30 09:14:09;;;;;;;5.13;1.95;;;20.10;99.90;;;;;;4997949;28;20096;-70
2023/07/30 09:16:34;;;;;;;6.88;1.65;;;20.00;99.90;;;;;;4996652;28;20030;-70
2023/07/30 09:19:00;;;;;;;7.10;1.52;;;20.00;99.90;;;;;;4996664;28;20121;-70
2023/07/30 09:21:33;;;;;;;7.97;2.85;;;20.00;99.90;;;;;;4996745;28;20027;-70
2023/07/30 09:24:05;;;;;;;4.03;1.60;;;20.00;99.90;;;;;;4996718;28;20033;-72
2023/07/30 09:26:41;;;;;;;6.97;2.10;;;19.90;99.90;;;;;;4996903;28;20026;-72
2023/07/30 09:29:10;;;;;;;10.35;2.22;;;19.70;99.90;;;;;;4996662;28;20060;-72
2023/07/30 09:31:56;;;;;;;5.07;1.80;;;19.80;99.90;;;;;;4996525;28;20022;-72
2023/07/30 09:34:24;;;;;;;4.63;1.98;;;19.70;99.90;;;;;;4997736;28;20030;-72
2023/07/30 09:36:52;;;;;;;6.95;2.38;;;19.60;99.90;;;;;;4996457;28;20022;-72
2023/07/30 09:39:21;;;;;;;5.38;2.20;;;19.30;99.90;;;;;;4996599;28;20041;-72
2023/07/30 09:41:47;;;;;;;4.10;1.85;;;19.10;99.90;;;;;;4997887;28;20049;-70
2023/07/30 09:44:16;;;;;;;4.63;1.80;;;19.10;99.90;;;;;;4996409;28;20030;-70
2023/07/30 09:46:49;;;;;;;7.63;2.03;;;18.80;99.90;;;;;;4996339;28;20053;-70
2023/07/30 09:49:18;;;;;;;6.97;2.17;;;18.60;99.90;;;;;;4997437;28;20026;-70
2023/07/30 09:51:45;;;;;;;8.38;2.20;;;18.50;99.90;;;;;;4996298;28;20034;-70
2023/07/30 09:54:14;;;;;;;7.55;2.20;;;18.40;99.90;;;;;;5000808;28;20073;-70
2023/07/30 09:56:41;;;;;;;11.00;2.28;;;18.40;99.90;;;;;;5000182;28;20042;-70
2023/07/30 09:59:08;;;;;;;3.67;1.88;;;18.30;99.90;;;;;;5000705;28;20080;-70
2023/07/30 10:01:49;;;;;;;2.53;1.50;;;18.20;99.90;;;;;;5001017;28;20022;-70
2023/07/30 10:04:15;;;;;;;4.53;1.45;;;18.20;99.90;;;;;;5000234;28;20018;-70
2023/07/30 10:07:13;;;;;;;6.38;1.90;;;18.20;99.90;;;;;;5001280;28;20032;-70
2023/07/30 10:09:45;;;;;;;4.00;1.30;;;18.20;99.90;;;;;;4999285;28;20034;-70
2023/07/30 10:12:14;;;;;;;3.67;2.00;;;18.10;99.90;;;;;;5000880;28;20022;-70
2023/07/30 10:14:41;;;;;;;4.80;2.03;;;18.10;99.90;;;;;;5000194;28;20033;-70
2023/07/30 10:17:10;;;;;;;3.42;1.40;;;18.10;99.90;;;;;;5001451;28;20030;-70
2023/07/30 10:19:36;;;;;;;6.30;2.13;;;18.40;99.90;;;;;;4999775;28;20029;-70
2023/07/30 10:22:21;;;;;;;4.03;2.28;;;18.60;99.90;;;;;;4999771;28;20113;-70
2023/07/30 10:25:07;;;;;;;4.20;1.42;;;18.60;99.90;;;;;;4999620;28;20054;-70
2023/07/30 10:27:38;;;;;;;4.25;1.60;;;18.60;99.90;;;;;;5000633;28;20092;-70
2023/07/30 10:30:15;;;;;;;2.95;1.42;;;18.90;99.90;;;;;;5000479;28;20122;-70
2023/07/30 10:32:57;;;;;;;3.22;1.50;;;19.00;99.90;;;;;;5000740;28;20027;-70
2023/07/30 10:35:48;;;;;;;2.10;1.38;;;19.10;99.90;;;;;;5000541;28;20018;-70
2023/07/30 10:38:29;;;;;;;3.28;1.23;;;19.20;99.90;;;;;;5000476;28;20022;-70
2023/07/30 10:41:13;;;;;;;2.08;1.67;;;19.30;99.90;;;;;;4999910;28;20029;-70
2023/07/30 10:43:41;;;;;;;4.80;1.00;;;19.30;99.90;;;;;;4999323;28;20033;-70
2023/07/30 10:46:11;;;;;;;3.78;0.98;;;19.30;99.90;;;;;;4999911;28;20081;-70
2023/07/30 10:48:38;;;;;;;8.48;2.08;;;19.20;99.90;;;;;;4999409;28;20110;-70
2023/07/30 10:51:15;;;;;;;4.10;1.48;;;19.20;99.90;;;;;;4999094;28;20061;-70
2023/07/30 10:53:49;;;;;;;3.42;1.25;;;19.40;99.90;;;;;;4999977;28;20030;-70
2023/07/30 10:56:21;;;;;;;3.78;0.95;;;19.40;99.90;;;;;;4999037;28;20092;-70
2023/07/30 10:58:50;;;;;;;4.80;0.98;;;19.50;99.90;;;;;;5000138;28;20050;-70
2023/07/30 11:01:16;;;;;;;2.38;1.05;;;19.60;99.90;;;;;;5000047;28;20022;-70
2023/07/30 11:03:41;;;;;;;1.48;0.85;;;19.70;99.90;;;;;;4998470;28;20077;-70
2023/07/30 11:06:07;;;;;;;4.72;0.93;;;19.90;99.90;;;;;;4998746;28;20064;-70
2023/07/30 11:08:37;;;;;;;5.22;1.02;;;20.10;99.90;;;;;;4999052;28;20030;-70
2023/07/30 11:11:03;;;;;;;3.50;0.93;;;20.20;99.90;;;;;;4999199;28;20058;-70
2023/07/30 11:13:29;;;;;;;5.25;1.30;;;20.30;99.90;;;;;;4998889;28;20026;-70
2023/07/30 11:15:54;;;;;;;1.80;0.85;;;20.10;99.90;;;;;;5022077;23;20038;-69
2023/07/30 11:18:20;;;;;;;5.90;1.25;;;20.10;99.90;;;;;;4998864;28;20026;-69
2023/07/30 11:20:45;;;;;;;2.58;1.02;;;20.30;99.90;;;;;;4998729;28;20022;-66
2023/07/30 11:23:22;;;;;;;1.17;0.85;;;20.40;99.90;;;;;;4999642;28;20033;-66
2023/07/30 11:25:50;;;;;;;8.90;1.38;;;20.50;99.90;;;;;;4999080;28;20030;-66
2023/07/30 11:28:36;;;;;;;2.92;1.13;;;20.30;99.90;;;;;;4998662;28;20026;-68
2023/07/30 11:31:07;;;;;;;5.40;1.92;;;20.30;99.90;;;;;;4998304;28;20026;-69
2023/07/30 11:33:38;;;;;;;4.38;1.20;;;20.30;99.90;;;;;;4999368;28;20026;-69
2023/07/30 11:36:04;;;;;;;4.72;1.35;;;20.20;99.90;;;;;;4998383;28;20030;-69
2023/07/30 11:38:31;;;;;;;6.68;1.40;;;20.30;99.90;;;;;;4998331;28;20034;-69
2023/07/30 11:40:57;;;;;;;4.75;1.35;;;20.20;99.90;;;;;;4998220;28;20022;-69
2023/07/30 11:43:23;;;;;;;4.38;1.00;;;20.20;99.90;;;;;;4998951;28;20100;-69
2023/07/30 11:46:05;;;;;;;3.67;1.50;;;20.00;99.90;;;;;;4999346;28;20027;-69
2023/07/30 11:48:30;;;;;;;;;;;19.70;99.90;;;;;;4998893;28;20061;-69
2023/07/30 11:50:56;;;;;;;7.45;1.65;;;19.60;99.90;;;;;;4998048;28;19952;-77
2023/07/30 11:53:21;;;;;;;4.47;1.40;;;19.70;99.90;;;;;;4997935;28;20113;-69
2023/07/30 11:55:47;;;;;;;3.42;1.13;;;19.80;99.90;;;;;;4997899;28;20033;-69
2023/07/30 11:58:13;;;;;;;4.88;1.63;;;19.80;99.90;;;;;;4998327;28;20030;-69
2023/07/30 12:00:40;;;;;;;6.53;1.48;;;19.70;99.90;;;;;;4998027;28;20034;-76
2023/07/30 12:03:07;;;;;;;4.50;1.20;;;19.50;99.90;;;;;;4998096;28;20022;-78
2023/07/30 12:05:37;;;;;;;3.72;1.70;;;19.50;99.90;;;;;;4998628;28;20030;-78
2023/07/30 12:08:03;;;;;;;6.72;1.48;;;19.60;99.90;;;;;;4998705;28;20101;-70
2023/07/30 12:10:43;;;;;;;6.18;1.60;;;19.60;99.90;;;;;;4997631;28;20116;-69
2023/07/30 12:13:18;;;;;;;3.38;1.13;;;19.60;99.90;;;;;;4998790;28;20026;-69
2023/07/30 12:15:54;;;;;;;6.68;1.40;;;19.60;99.90;;;;;;4997863;28;20034;-70
2023/07/30 12:18:20;;;;;;;4.20;1.27;;;19.80;99.90;;;;;;4997468;28;20100;-69
2023/07/30 12:20:50;;;;;;;5.18;1.30;;;19.90;99.90;;;;;;4996676;28;20034;-78
2023/07/30 12:23:16;;;;;;;5.05;1.90;;;20.00;99.90;;;;;;4997693;28;20026;-78
2023/07/30 12:25:42;;;;;;;4.00;1.30;;;20.30;99.90;;;;;;4997677;28;20058;-77
2023/07/30 12:28:07;;;;;;;7.72;1.40;;;20.60;99.90;;;;;;4996982;28;20109;-66
2023/07/30 12:30:33;;;;;;;2.67;1.13;;;21.10;99.90;;;;;;4996522;28;20026;-66
2023/07/30 12:32:59;;;;;;;2.75;1.00;;;21.30;99.90;;;;;;4996571;28;20022;-66
2023/07/30 12:35:24;;;;;;;3.50;1.50;;;21.20;99.90;;;;;;4997400;28;20053;-66
2023/07/30 12:37:50;;;;;;;4.72;1.20;;;20.90;99.90;;;;;;4996440;28;20022;-66
2023/07/30 12:40:17;;;;;;;5.22;1.60;;;20.80;99.90;;;;;;4996568;28;20022;-66
2023/07/30 12:42:42;;;;;;;5.47;1.33;;;21.20;99.90;;;;;;4996359;28;20062;-66
2023/07/30 12:45:08;;;;;;;5.60;1.25;;;21.90;99.90;;;;;;4996304;28;20022;-66
2023/07/30 12:47:36;;;;;;;4.85;1.30;;;23.00;99.90;;;;;;4996304;28;20022;-66